Time;durP1;ratioP1;P1;durP2;ratioP2;P2;SDS_P1;SDS_P2;PMS_P1;PMS_P2;Temp;Humidity;BMP_temperature;BMP_pressure;BME280_temperature;BME280_humidity;BME280_pressure;Samples;Min_cycle;Max_cycle;Signal;HPM_P1;HPM_P2
2022/07/08 00:02:22;;;;;;;;;;;;;;;28.88;31.74;100538.03;5067381;28;1252;-39
2022/07/08 00:04:47;;;;;;;;;;;;;;;29.00;31.44;100541.88;5067101;28;957;-40
2022/07/08 00:07:13;;;;;;;;;;;;;;;28.98;31.58;100540.41;5064247;28;1000;-40
2022/07/08 00:09:39;;;;;;;;;;;;;;;28.94;31.76;100548.91;5063583;28;1044;-41
2022/07/08 00:12:04;;;;;;;;;;;;;;;28.93;31.49;100538.25;5069413;28;1020;-41
2022/07/08 00:14:29;;;;;;;;;;;;;;;28.87;32.00;100539.91;5069559;28;1973;-40
2022/07/08 00:16:55;;;;;;;;;;;;;;;28.95;31.59;100541.59;5062915;28;1001;-40
2022/07/08 00:19:20;;;;;;;;;;;;;;;28.75;32.12;100533.38;5067530;28;1003;-40
2022/07/08 00:21:46;;;;;;;;;;;;;;;28.78;32.05;100531.09;5071868;28;1123;-41
2022/07/08 00:24:12;;;;;;;;;;;;;;;28.81;32.14;100524.47;5068382;28;1088;-40
2022/07/08 00:26:37;;;;;;;;;;;;;;;28.84;31.72;100527.59;5063558;28;1015;-40
2022/07/08 00:29:02;;;;;;;;;;;;;;;28.81;32.12;100529.88;5066696;28;1388;-41
2022/07/08 00:31:28;;;;;;;;;;;;;;;28.80;32.05;100529.03;5067716;28;1052;-40
2022/07/08 00:33:53;;;;;;;;;;;;;;;28.78;31.84;100525.69;5061172;28;1976;-40
2022/07/08 00:36:18;;;;;;;;;;;;;;;28.83;31.97;100525.06;5067374;28;976;-40
2022/07/08 00:38:44;;;;;;;;;;;;;;;28.84;31.96;100527.59;5069448;28;1159;-39
2022/07/08 00:41:10;;;;;;;;;;;;;;;28.83;31.75;100527.78;5065617;28;981;-40
2022/07/08 00:43:40;;;;;;;;;;;;;;;28.79;31.75;100531.94;5063567;28;1130;-40
2022/07/08 00:46:05;;;;;;;;;;;;;;;28.79;32.03;100540.06;5064749;28;1062;-40
2022/07/08 00:48:31;;;;;;;;;;;;;;;28.75;31.65;100539.63;5072000;28;1163;-40
2022/07/08 00:51:05;;;;;;;;;;;;;;;28.87;31.40;100534.50;5059500;28;945;-40
2022/07/08 00:53:30;;;;;;;;;;;;;;;28.91;31.24;100530.31;5065528;28;1890;-40
2022/07/08 00:55:56;;;;;;;;;;;;;;;28.82;31.20;100521.56;5061487;28;1162;-40
2022/07/08 00:58:21;;;;;;;;;;;;;;;28.76;31.78;100524.22;5071413;28;992;-40
2022/07/08 01:00:47;;;;;;;;;;;;;;;28.90;31.19;100522.41;5071382;28;1243;-40
2022/07/08 01:03:12;;;;;;;;;;;;;;;28.81;31.68;100528.00;5059507;28;954;-40
2022/07/08 01:05:37;;;;;;;;;;;;;;;28.86;31.38;100527.41;5063567;28;1024;-40
2022/07/08 01:08:03;;;;;;;;;;;;;;;28.94;31.28;100521.84;5060100;28;1129;-40
2022/07/08 01:10:29;;;;;;;;;;;;;;;28.89;31.25;100532.44;5066230;28;1339;-40
2022/07/08 01:12:55;;;;;;;;;;;;;;;28.82;31.59;100518.84;5068370;28;1068;-39
2022/07/08 01:15:21;;;;;;;;;;;;;;;28.89;31.51;100518.88;5059027;28;1906;-39
2022/07/08 01:17:47;;;;;;;;;;;;;;;28.91;31.46;100516.78;5067224;28;993;-39
2022/07/08 01:20:12;;;;;;;;;;;;;;;28.88;31.57;100516.38;5062338;28;1158;-41
2022/07/08 01:22:37;;;;;;;;;;;;;;;28.83;31.82;100517.81;5067512;28;1083;-40
2022/07/08 01:25:03;;;;;;;;;;;;;;;28.88;31.42;100521.78;5071506;28;1171;-40
2022/07/08 01:27:29;;;;;;;;;;;;;;;28.93;31.05;100513.88;5064114;28;957;-40
2022/07/08 01:29:54;;;;;;;;;;;;;;;28.90;31.23;100522.41;5066091;28;977;-40
2022/07/08 01:32:19;;;;;;;;;;;;;;;28.90;31.29;100528.66;5058822;28;1060;-39
2022/07/08 01:34:44;;;;;;;;;;;;;;;28.93;31.17;100520.13;5065222;28;1897;-39
2022/07/08 01:37:10;;;;;;;;;;;;;;;28.94;30.65;100521.84;5067668;28;1218;-39
2022/07/08 01:39:35;;;;;;;;;;;;;;;28.93;31.17;100514.72;5064399;28;1076;-39
2022/07/08 01:42:00;;;;;;;;;;;;;;;28.94;31.26;100515.56;5069032;28;1123;-40
2022/07/08 01:44:26;;;;;;;;;;;;;;;28.93;31.32;100519.28;5064513;28;973;-40
2022/07/08 01:46:51;;;;;;;;;;;;;;;28.91;30.60;100516.78;5063728;28;1055;-40
2022/07/08 01:49:16;;;;;;;;;;;;;;;28.92;31.30;100512.22;5071303;28;1012;-40
2022/07/08 01:51:42;;;;;;;;;;;;;;;28.83;31.40;100512.38;5063259;28;949;-40
2022/07/08 01:54:07;;;;;;;;;;;;;;;28.87;31.16;100510.13;5066517;28;1894;-40
2022/07/08 01:56:32;;;;;;;;;;;;;;;28.91;30.75;100503.25;5063714;28;1064;-40
2022/07/08 01:58:58;;;;;;;;;;;;;;;28.85;31.52;100514.91;5065544;28;1067;-40
2022/07/08 02:01:23;;;;;;;;;;;;;;;28.84;30.98;100514.06;5064438;28;1209;-39
2022/07/08 02:03:48;;;;;;;;;;;;;;;28.92;30.84;100507.66;5064880;28;1067;-39
2022/07/08 02:06:14;;;;;;;;;;;;;;;28.89;30.91;100509.91;5065792;28;993;-40
2022/07/08 02:08:39;;;;;;;;;;;;;;;28.92;30.63;100523.91;5061232;28;973;-40
2022/07/08 02:13:48;;;;;;;;;;;;;;;28.86;30.91;100516.59;5062950;28;1898;-40
2022/07/08 02:16:13;;;;;;;;;;;;;;;28.97;31.21;100517.91;5062968;28;1047;-40
2022/07/08 02:18:38;;;;;;;;;;;;;;;28.91;31.00;100518.69;5070589;28;1142;-40
2022/07/08 02:21:04;;;;;;;;;;;;;;;28.87;31.49;100517.41;5068338;28;985;-40
2022/07/08 02:23:29;;;;;;;;;;;;;;;28.92;30.76;100526.59;5059427;28;1217;-40
2022/07/08 02:25:54;;;;;;;;;;;;;;;28.94;31.40;100529.94;5064354;28;1012;-40
2022/07/08 02:28:20;;;;;;;;;;;;;;;28.93;31.14;100520.13;5063565;28;1012;-40
2022/07/08 02:30:45;;;;;;;;;;;;;;;28.91;31.46;100537.63;5065802;28;980;-40
2022/07/08 02:33:11;;;;;;;;;;;;;;;28.89;31.73;100529.72;5066017;28;1001;-39
2022/07/08 02:35:36;;;;;;;;;;;;;;;28.95;31.48;100528.91;5059594;28;1126;-40
2022/07/08 02:38:01;;;;;;;;;;;;;;;28.90;31.48;100523.25;5065467;28;1047;-39
2022/07/08 02:40:27;;;;;;;;;;;;;;;29.02;30.96;100525.41;5064029;28;1195;-39
2022/07/08 02:42:52;;;;;;;;;;;;;;;28.96;31.33;100527.03;5067489;28;996;-41
2022/07/08 02:45:17;;;;;;;;;;;;;;;28.94;31.36;100527.25;5069511;28;1183;-39
2022/07/08 02:47:42;;;;;;;;;;;;;;;29.00;31.18;100533.75;5063515;28;1001;-41
2022/07/08 02:50:08;;;;;;;;;;;;;;;28.91;31.59;100533.03;5063277;28;1202;-39
2022/07/08 02:52:33;;;;;;;;;;;;;;;28.89;31.04;100529.72;5057173;28;996;-39
2022/07/08 02:54:59;;;;;;;;;;;;;;;28.97;31.01;100534.16;5065444;28;1969;-39
2022/07/08 02:57:24;;;;;;;;;;;;;;;28.94;30.78;100521.00;5062602;28;1071;-41
2022/07/08 02:59:50;;;;;;;;;;;;;;;28.93;31.24;100536.38;5069715;28;1151;-40
2022/07/08 03:02:15;;;;;;;;;;;;;;;28.85;31.21;100525.72;5061318;28;1195;-39
2022/07/08 03:04:41;;;;;;;;;;;;;;;28.52;32.29;100537.19;5058529;28;1003;-37
2022/07/08 03:07:07;;;;;;;;;;;;;;;27.14;35.91;100540.63;5065442;28;981;-38
2022/07/08 03:09:32;;;;;;;;;;;;;;;26.69;37.16;100537.91;5065517;28;1001;-37
2022/07/08 03:11:58;;;;;;;;;;;;;;;26.47;37.98;100540.47;5065163;28;1123;-37
2022/07/08 03:14:23;;;;;;;;;;;;;;;26.20;38.96;100548.09;5059468;28;1887;-37
2022/07/08 03:16:48;;;;;;;;;;;;;;;26.26;38.89;100550.91;5062805;28;1000;-37
2022/07/08 03:19:14;;;;;;;;;;;;;;;24.09;43.72;100551.72;5064064;28;1156;-39
2022/07/08 03:21:39;;;;;;;;;;;;;;;23.98;44.42;100546.66;5065282;28;1019;-38
2022/07/08 03:24:04;;;;;;;;;;;;;;;22.77;47.67;100549.41;5068482;28;1221;-39
2022/07/08 03:26:29;;;;;;;;;;;;;;;23.95;44.84;100555.06;5064590;28;1053;-40
2022/07/08 03:28:55;;;;;;;;;;;;;;;25.70;40.39;100556.56;5061081;28;1091;-39
2022/07/08 03:31:20;;;;;;;;;;;;;;;26.62;37.14;100554.84;5063488;28;1086;-39
2022/07/08 03:33:45;;;;;;;;;;;;;;;27.09;35.76;100560.06;5063201;28;1902;-40
2022/07/08 03:36:11;;;;;;;;;;;;;;;27.33;34.92;100558.06;5057842;28;1143;-40
2022/07/08 03:38:36;;;;;;;;;;;;;;;27.38;34.04;100558.34;5065108;28;1000;-40
2022/07/08 03:41:19;;;;;;;;;;;;;;;26.01;34.86;100559.19;5062565;28;1521;-39
2022/07/08 03:43:45;;;;;;;;;;;;;;;21.28;50.25;100563.91;5064765;28;988;-39
2022/07/08 03:46:10;;;;;;;;;;;;;;;20.58;52.79;100557.91;5061016;28;1197;-39
2022/07/08 03:48:36;;;;;;;;;;;;;;;20.28;53.90;100554.44;5067389;28;1102;-40
2022/07/08 03:51:01;;;;;;;;;;;;;;;22.58;50.04;100575.41;5063814;28;1031;-41
2022/07/08 03:53:26;;;;;;;;;;;;;;;24.57;45.29;100572.53;5062013;28;1902;-37
2022/07/08 03:55:53;;;;;;;;;;;;;;;25.02;37.54;100577.56;5068362;28;1586;-37
2022/07/08 03:58:18;;;;;;;;;;;;;;;24.85;41.16;100592.84;5055815;28;1008;-38
2022/07/08 04:00:43;;;;;;;;;;;;;;;20.71;51.29;100564.78;5069183;28;1255;-37
2022/07/08 04:03:09;;;;;;;;;;;;;;;23.14;44.12;100569.72;5065546;28;1167;-38
2022/07/08 04:05:34;;;;;;;;;;;;;;;22.98;43.58;100567.81;5066053;28;1310;-37
2022/07/08 04:08:00;;;;;;;;;;;;;;;19.29;53.20;100576.44;5065827;28;1135;-36
2022/07/08 04:10:25;;;;;;;;;;;;;;;18.63;56.06;100566.97;5066226;28;1047;-36
2022/07/08 04:12:50;;;;;;;;;;;;;;;18.77;58.17;100569.28;5067342;28;1116;-36
2022/07/08 04:15:17;;;;;;;;;;;;;;;21.92;44.18;100575.69;5065426;28;1910;-37
2022/07/08 04:17:42;;;;;;;;;;;;;;;22.78;40.63;100580.59;5074491;28;1047;-37
2022/07/08 04:20:08;;;;;;;;;;;;;;;18.97;54.13;100586.22;5057631;28;1118;-36
2022/07/08 04:22:33;;;;;;;;;;;;;;;18.41;56.50;100582.09;5067136;28;961;-36
2022/07/08 04:24:58;;;;;;;;;;;;;;;18.80;57.12;100581.50;5067630;28;1059;-37
2022/07/08 04:27:23;;;;;;;;;;;;;;;21.93;45.15;100588.09;5067769;28;1028;-35
2022/07/08 04:29:49;;;;;;;;;;;;;;;21.33;43.69;100584.88;5072353;28;1000;-36
2022/07/08 04:32:14;;;;;;;;;;;;;;;18.55;53.92;100586.25;5063103;28;2517;-34
2022/07/08 04:34:39;;;;;;;;;;;;;;;21.19;46.67;100586.22;5068720;28;1961;-34
2022/07/08 04:37:05;;;;;;;;;;;;;;;22.57;45.44;100596.00;5074944;28;1110;-35
2022/07/08 04:39:30;;;;;;;;;;;;;;;18.72;54.61;100580.34;5068814;28;1150;-36
2022/07/08 04:41:55;;;;;;;;;;;;;;;18.27;57.68;100586.75;5069505;28;1344;-35
2022/07/08 04:44:21;;;;;;;;;;;;;;;18.06;59.47;100584.00;5069207;28;815;-35
2022/07/08 04:46:46;;;;;;;;;;;;;;;19.83;55.86;100581.50;5063943;28;988;-35
2022/07/08 04:49:11;;;;;;;;;;;;;;;22.74;46.53;100580.91;5067482;28;1088;-35
2022/07/08 04:51:36;;;;;;;;;;;;;;;19.36;55.67;100571.41;5064789;28;1257;-35
2022/07/08 04:54:02;;;;;;;;;;;;;;;18.22;59.89;100572.97;5059948;28;1961;-35
2022/07/08 04:56:27;;;;;;;;;;;;;;;19.43;58.87;100582.41;5059570;28;945;-35
2022/07/08 04:58:52;;;;;;;;;;;;;;;21.98;46.46;100569.72;5070984;28;1000;-35
2022/07/08 05:01:18;;;;;;;;;;;;;;;22.62;43.92;100579.50;5063485;28;2392;-34
2022/07/08 05:03:43;;;;;;;;;;;;;;;21.37;51.39;100575.56;5072204;28;1000;-35
2022/07/08 05:06:08;;;;;;;;;;;;;;;23.08;45.55;100579.28;5066819;28;1012;-36
2022/07/08 05:08:34;;;;;;;;;;;;;;;22.40;45.77;100578.97;5074438;28;992;-35
2022/07/08 05:10:59;;;;;;;;;;;;;;;20.93;52.67;100593.03;5066409;28;1000;-35
2022/07/08 05:13:24;;;;;;;;;;;;;;;22.78;46.92;100589.50;5075369;28;1965;-35
2022/07/08 05:15:50;;;;;;;;;;;;;;;23.42;43.57;100595.56;5077837;28;1071;-35
2022/07/08 05:18:15;;;;;;;;;;;;;;;20.48;52.04;100602.50;5065309;28;1047;-35
2022/07/08 05:20:40;;;;;;;;;;;;;;;22.24;48.10;100601.94;5059766;28;1915;-35
2022/07/08 05:23:05;;;;;;;;;;;;;;;23.67;44.97;100603.69;5058358;28;946;-35
2022/07/08 05:25:31;;;;;;;;;;;;;;;20.78;51.64;100593.47;5068913;28;1253;-35
2022/07/08 05:27:56;;;;;;;;;;;;;;;22.48;48.03;100596.94;5066620;28;1230;-35
2022/07/08 05:30:21;;;;;;;;;;;;;;;23.52;43.10;100598.09;5061790;28;1119;-35
2022/07/08 05:32:47;;;;;;;;;;;;;;;20.52;52.08;100595.91;5065633;28;2561;-36
2022/07/08 05:35:12;;;;;;;;;;;;;;;22.31;48.72;100593.28;5065640;28;1897;-35
2022/07/08 05:37:40;;;;;;;;;;;;;;;23.70;46.92;100603.38;5075745;28;1177;-36
2022/07/08 05:40:06;;;;;;;;;;;;;;;21.07;50.38;100590.91;5059032;28;1016;-35
2022/07/08 05:42:32;;;;;;;;;;;;;;;21.24;52.65;100590.13;5067280;28;1020;-35
2022/07/08 05:44:57;;;;;;;;;;;;;;;23.20;46.46;100593.25;5066327;28;1103;-34
2022/07/08 05:47:22;;;;;;;;;;;;;;;20.90;52.23;100591.47;5067888;28;1067;-35
2022/07/08 05:49:48;;;;;;;;;;;;;;;22.74;47.20;100597.00;5064046;28;1327;-35
2022/07/08 05:52:13;;;;;;;;;;;;;;;23.72;44.89;100591.44;5063656;28;1051;-35
2022/07/08 05:54:38;;;;;;;;;;;;;;;20.75;51.36;100582.22;5069603;28;1963;-35
2022/07/08 05:57:04;;;;;;;;;;;;;;;21.45;51.61;100586.38;5071468;28;988;-34
2022/07/08 05:59:29;;;;;;;;;;;;;;;23.26;43.31;100597.13;5070646;28;1028;-34
2022/07/08 06:01:55;;;;;;;;;;;;;;;20.48;52.29;100586.47;5061988;28;1205;-38
2022/07/08 06:04:20;;;;;;;;;;;;;;;20.88;54.83;100590.78;5072438;28;1329;-38
2022/07/08 06:06:45;;;;;;;;;;;;;;;23.33;45.96;100595.50;5069283;28;1012;-38
2022/07/08 06:09:11;;;;;;;;;;;;;;;20.74;51.84;100589.38;5070300;28;1230;-37
2022/07/08 06:11:37;;;;;;;;;;;;;;;20.86;55.08;100605.25;5074360;28;1142;-39
2022/07/08 06:14:02;;;;;;;;;;;;;;;23.19;46.03;100607.66;5070403;28;1973;-41
2022/07/08 06:16:27;;;;;;;;;;;;;;;23.89;44.21;100606.78;5063162;28;1739;-39
2022/07/08 06:18:53;;;;;;;;;;;;;;;24.93;42.44;100609.00;5065508;28;1144;-39
2022/07/08 06:21:18;;;;;;;;;;;;;;;25.25;42.26;100600.16;5068189;28;1000;-38
2022/07/08 06:23:43;;;;;;;;;;;;;;;25.65;41.31;100608.28;5062029;28;1024;-39
2022/07/08 06:26:10;;;;;;;;;;;;;;;25.77;40.45;100611.41;5064249;28;1055;-39
2022/07/08 06:28:35;;;;;;;;;;;;;;;25.70;40.31;100613.97;5057525;28;1033;-40
2022/07/08 06:31:01;;;;;;;;;;;;;;;25.89;39.87;100617.25;5058653;28;1529;-37
2022/07/08 06:33:26;;;;;;;;;;;;;;;26.02;39.46;100616.66;5062419;28;1898;-37
2022/07/08 06:35:51;;;;;;;;;;;;;;;26.25;38.86;100623.91;5065298;28;1171;-37
2022/07/08 06:38:16;;;;;;;;;;;;;;;26.44;38.27;100619.06;5061499;28;1388;-38
2022/07/08 06:40:42;;;;;;;;;;;;;;;26.44;37.91;100621.75;5061849;28;1225;-37
2022/07/08 06:43:07;;;;;;;;;;;;;;;26.35;38.44;100624.53;5066840;28;1059;-37
2022/07/08 06:45:32;;;;;;;;;;;;;;;26.71;37.38;100627.59;5067726;28;1040;-38
2022/07/08 06:48:01;;;;;;;;;;;;;;;26.76;37.12;100617.06;5056810;28;1340;-37
2022/07/08 06:50:26;;;;;;;;;;;;;;;26.96;37.11;100619.25;5069681;28;1426;-38
2022/07/08 06:52:52;;;;;;;;;;;;;;;27.01;37.07;100612.28;5059353;28;1255;-38
2022/07/08 06:55:17;;;;;;;;;;;;;;;27.17;36.60;100612.28;5066484;28;1905;-36
2022/07/08 06:57:42;;;;;;;;;;;;;;;27.10;36.33;100612.19;5068392;28;1019;-37
2022/07/08 07:00:08;;;;;;;;;;;;;;;27.17;36.42;100613.13;5068035;28;957;-36
2022/07/08 07:02:33;;;;;;;;;;;;;;;27.13;36.31;100614.53;5065218;28;1219;-36
2022/07/08 07:04:58;;;;;;;;;;;;;;;27.24;36.37;100608.66;5062199;28;996;-37
2022/07/08 07:07:24;;;;;;;;;;;;;;;27.30;35.66;100604.38;5059973;28;1637;-37
2022/07/08 07:09:49;;;;;;;;;;;;;;;27.36;35.85;100609.00;5059482;28;1566;-37
2022/07/08 07:12:17;;;;;;;;;;;;;;;27.49;35.92;100604.81;5057605;28;1621;-36
2022/07/08 07:14:43;;;;;;;;;;;;;;;27.29;35.66;100615.38;5058412;28;2031;-36
2022/07/08 07:17:08;;;;;;;;;;;;;;;27.26;35.53;100617.41;5058859;28;1367;-36
2022/07/08 07:19:33;;;;;;;;;;;;;;;27.29;35.49;100613.50;5069898;28;1028;-37
2022/07/08 07:21:58;;;;;;;;;;;;;;;27.26;35.95;100614.72;5061695;28;1416;-36
2022/07/08 07:24:24;;;;;;;;;;;;;;;27.50;35.82;100606.47;5056216;28;997;-35
2022/07/08 07:26:49;;;;;;;;;;;;;;;27.51;35.71;100603.59;5062284;28;953;-37
2022/07/08 07:29:15;;;;;;;;;;;;;;;27.56;35.71;100600.31;5063276;28;1417;-35
2022/07/08 07:31:40;;;;;;;;;;;;;;;27.61;35.47;100600.59;5063539;28;1668;-36
2022/07/08 07:34:07;;;;;;;;;;;;;;;27.77;35.14;100604.13;5059302;28;1949;-37
2022/07/08 07:36:32;;;;;;;;;;;;;;;27.78;35.29;100597.69;5062309;28;1149;-38
2022/07/08 07:38:58;;;;;;;;;;;;;;;27.81;34.92;100602.69;5057716;28;1068;-38
2022/07/08 07:41:23;;;;;;;;;;;;;;;27.89;35.08;100609.88;5059276;28;1270;-39
2022/07/08 07:43:48;;;;;;;;;;;;;;;27.76;35.20;100607.84;5066936;28;1159;-39
2022/07/08 07:46:14;;;;;;;;;;;;;;;27.69;35.62;100601.53;5070221;28;1401;-39
2022/07/08 07:48:39;;;;;;;;;;;;;;;27.92;35.52;100595.97;5072215;28;1201;-38
2022/07/08 07:51:05;;;;;;;;;;;;;;;27.92;34.86;100595.97;5061976;28;1039;-38
2022/07/08 07:53:30;;;;;;;;;;;;;;;27.87;35.07;100598.41;5056474;28;1902;-38
2022/07/08 07:55:57;;;;;;;;;;;;;;;27.87;35.03;100601.97;5062530;28;1023;-38
2022/07/08 07:58:22;;;;;;;;;;;;;;;27.85;34.79;100600.47;5057944;28;1348;-38
2022/07/08 08:00:48;;;;;;;;;;;;;;;27.82;35.05;100600.84;5058487;28;1230;-36
2022/07/08 08:03:13;;;;;;;;;;;;;;;27.78;35.51;100599.56;5063094;28;1497;-38
2022/07/08 08:05:39;;;;;;;;;;;;;;;27.80;35.40;100594.78;5064485;28;1023;-39
2022/07/08 08:08:05;;;;;;;;;;;;;;;27.83;35.35;100597.09;5066194;28;1575;-39
2022/07/08 08:10:30;;;;;;;;;;;;;;;28.04;35.70;100600.84;5064100;28;1165;-38
2022/07/08 08:12:55;;;;;;;;;;;;;;;27.94;35.21;100591.22;5077051;28;996;-39
2022/07/08 08:15:22;;;;;;;;;;;;;;;28.09;35.53;100596.53;5076986;28;1921;-39
2022/07/08 08:17:47;;;;;;;;;;;;;;;28.08;35.70;100602.13;5074478;28;878;-39
2022/07/08 08:20:13;;;;;;;;;;;;;;;28.00;35.73;100597.69;5078771;28;1020;-40
2022/07/08 08:22:38;;;;;;;;;;;;;;;27.97;35.52;100601.63;5067710;28;956;-38
2022/07/08 08:25:04;;;;;;;;;;;;;;;27.99;35.41;100598.75;5062356;28;1123;-38
2022/07/08 08:27:29;;;;;;;;;;;;;;;28.04;35.61;100601.72;5062901;28;1281;-37
2022/07/08 08:29:54;;;;;;;;;;;;;;;27.99;35.81;100606.84;5062726;28;1369;-37
2022/07/08 08:32:20;;;;;;;;;;;;;;;28.04;35.78;100590.88;5061159;28;1024;-37
2022/07/08 08:34:46;;;;;;;;;;;;;;;28.14;35.45;100597.84;5066394;28;1964;-38
2022/07/08 08:37:12;;;;;;;;;;;;;;;28.27;35.33;100597.97;5065470;28;1083;-39
2022/07/08 08:39:37;;;;;;;;;;;;;;;28.26;35.38;100595.44;5077308;28;1075;-38
2022/07/08 08:42:02;;;;;;;;;;;;;;;28.28;35.55;100590.69;5065322;28;1242;-40
2022/07/08 08:44:29;;;;;;;;;;;;;;;28.31;35.89;100587.59;5062557;28;1277;-40
2022/07/08 08:46:55;;;;;;;;;;;;;;;28.43;35.65;100591.44;5064530;28;1072;-39
2022/07/08 08:49:20;;;;;;;;;;;;;;;28.41;35.98;100588.09;5065175;28;1139;-39
2022/07/08 08:51:48;;;;;;;;;;;;;;;28.53;35.19;100587.59;5069936;28;1008;-40
2022/07/08 08:54:13;;;;;;;;;;;;;;;28.62;35.77;100578.28;5065487;28;1965;-38
2022/07/08 08:56:38;;;;;;;;;;;;;;;28.64;35.78;100581.63;5069230;28;1155;-38
2022/07/08 08:59:05;;;;;;;;;;;;;;;29.07;35.68;100577.94;5068079;28;1238;-38
2022/07/08 09:01:32;;;;;;;;;;;;;;;28.84;36.29;100584.44;5074387;28;1250;-38
2022/07/08 09:03:57;;;;;;;;;;;;;;;29.20;36.45;100573.63;5064654;28;1281;-38
2022/07/08 09:06:23;;;;;;;;;;;;;;;29.16;36.64;100562.34;5059165;28;2476;-38
2022/07/08 09:08:48;;;;;;;;;;;;;;;29.19;36.40;100569.25;5063925;28;1167;-38
2022/07/08 09:11:17;;;;;;;;;;;;;;;29.34;36.34;100561.78;5064847;28;957;-38
2022/07/08 09:13:42;;;;;;;;;;;;;;;29.23;36.65;100551.53;5072292;28;1972;-38
2022/07/08 09:16:07;;;;;;;;;;;;;;;29.61;36.14;100554.81;5066735;28;1189;-38
2022/07/08 09:18:35;;;;;;;;;;;;;;;29.77;35.72;100553.59;5064958;28;1096;-38
2022/07/08 09:21:00;;;;;;;;;;;;;;;29.77;35.86;100540.03;5063281;28;1357;-38
2022/07/08 09:23:32;;;;;;;;;;;;;;;30.01;35.05;100548.63;5059273;28;1179;-37
2022/07/08 09:25:58;;;;;;;;;;;;;;;29.73;35.33;100541.50;5067789;28;1286;-38
2022/07/08 09:28:39;;;;;;;;;;;;;;;29.14;36.37;100531.09;5076622;28;1004;-37
2022/07/08 09:31:05;;;;;;;;;;;;;;;28.98;36.08;100533.09;5060468;28;1190;-37
2022/07/08 09:33:31;;;;;;;;;;;;;;;28.92;35.71;100534.72;5067643;28;1905;-38
2022/07/08 09:35:56;;;;;;;;;;;;;;;28.88;35.70;100530.72;5065768;28;1004;-38
2022/07/08 09:38:22;;;;;;;;;;;;;;;28.83;35.41;100535.91;5059355;28;2647;-38
2022/07/08 09:40:55;;;;;;;;;;;;;;;29.01;36.40;100535.41;5072554;28;1000;-38
2022/07/08 09:43:21;;;;;;;;;;;;;;;29.89;35.10;100529.44;5060235;28;1111;-38
2022/07/08 09:45:46;;;;;;;;;;;;;;;29.61;34.77;100525.00;5067595;28;1048;-37
2022/07/08 09:48:12;;;;;;;;;;;;;;;29.36;35.00;100530.97;5070986;28;1039;-37
2022/07/08 09:50:37;;;;;;;;;;;;;;;29.56;34.80;100529.13;5070993;28;1051;-37
2022/07/08 09:53:15;;;;;;;;;;;;;;;30.00;34.46;100530.66;5068367;28;1265;-37
2022/07/08 09:55:41;;;;;;;;;;;;;;;30.19;33.94;100527.16;5069649;28;1967;-38
2022/07/08 09:58:07;;;;;;;;;;;;;;;30.02;33.80;100521.31;5063022;28;1119;-38
2022/07/08 10:00:33;;;;;;;;;;;;;;;29.76;35.12;100528.34;5073308;28;1077;-39
2022/07/08 10:02:58;;;;;;;;;;;;;;;30.21;33.70;100524.25;5073332;28;1217;-38
2022/07/08 10:05:24;;;;;;;;;;;;;;;29.87;33.97;100521.50;5069887;28;1108;-38
2022/07/08 10:07:49;;;;;;;;;;;;;;;29.40;34.18;100515.97;5061543;28;1024;-37
2022/07/08 10:10:14;;;;;;;;;;;;;;;29.43;34.46;100518.25;5061845;28;1216;-38
2022/07/08 10:12:39;;;;;;;;;;;;;;;30.04;34.61;100518.38;5067098;28;1293;-38
2022/07/08 10:15:05;;;;;;;;;;;;;;;30.41;33.87;100501.69;5058406;28;1910;-38
2022/07/08 10:17:32;;;;;;;;;;;;;;;30.18;33.29;100511.91;5065205;28;1151;-38
2022/07/08 10:19:57;;;;;;;;;;;;;;;29.57;33.81;100513.72;5065494;28;1109;-38
2022/07/08 10:22:22;;;;;;;;;;;;;;;29.42;33.79;100520.16;5061168;28;1028;-39
2022/07/08 10:24:47;;;;;;;;;;;;;;;29.57;33.71;100522.69;5056715;28;1277;-39
2022/07/08 10:27:13;;;;;;;;;;;;;;;29.98;34.02;100522.75;5064703;28;1244;-28
2022/07/08 10:29:40;;;;;;;;;;;;;;;29.77;33.31;100505.66;5060553;28;997;-29
2022/07/08 10:32:17;;;;;;;;;;;;;;;29.54;33.67;100519.53;5065294;28;1003;-29
2022/07/08 10:34:43;;;;;;;;;;;;;;;29.57;32.86;100516.44;5070046;28;1965;-29
2022/07/08 10:37:08;;;;;;;;;;;;;;;29.43;32.83;100520.97;5070081;28;976;-28
2022/07/08 10:39:36;;;;;;;;;;;;;;;29.67;33.52;100519.59;5071200;28;1272;-28
2022/07/08 10:42:05;;;;;;;;;;;;;;;29.46;33.08;100520.59;5070481;28;1538;-27
2022/07/08 10:44:46;;;;;;;;;;;;;;;29.40;32.89;100515.97;5074447;28;1078;-27
2022/07/08 10:47:31;;;;;;;;;;;;;;;29.47;32.58;100516.81;5074850;28;1194;-27
2022/07/08 10:50:03;;;;;;;;;;;;;;;30.04;32.38;100516.50;5066569;28;950;-29
2022/07/08 10:52:32;;;;;;;;;;;;;;;30.23;32.09;100514.00;5064002;28;962;-27
2022/07/08 10:55:07;;;;;;;;;;;;;;;29.80;32.96;100512.53;5068095;28;1961;-29
2022/07/08 10:57:35;;;;;;;;;;;;;;;29.68;32.61;100510.41;5073204;28;1016;-28
2022/07/08 11:00:03;;;;;;;;;;;;;;;29.89;32.24;100514.00;5071697;28;1001;-28
2022/07/08 11:02:29;;;;;;;;;;;;;;;29.92;32.25;100507.31;5063383;28;1131;-29
2022/07/08 11:04:54;;;;;;;;;;;;;;;30.30;31.47;100506.69;5065378;28;1179;-30
2022/07/08 11:07:27;;;;;;;;;;;;;;;30.57;30.77;100496.81;5057184;28;1091;-27
2022/07/08 11:10:01;;;;;;;;;;;;;;;30.01;31.87;100497.91;5067370;28;985;-29
2022/07/08 11:12:27;;;;;;;;;;;;;;;30.42;32.35;100495.19;5073412;28;1118;-30
2022/07/08 11:14:56;;;;;;;;;;;;;;;30.49;31.46;100493.31;5074716;28;1906;-28
2022/07/08 11:17:22;;;;;;;;;;;;;;;30.22;31.91;100490.66;5075553;28;1019;-30
2022/07/08 11:19:48;;;;;;;;;;;;;;;30.07;31.63;100496.25;5058455;28;965;-33
2022/07/08 11:22:13;;;;;;;;;;;;;;;29.68;32.07;100496.88;5070028;28;988;-30
2022/07/08 11:24:39;;;;;;;;;;;;;;;29.75;31.59;100496.88;5063710;28;995;-28
2022/07/08 11:27:04;;;;;;;;;;;;;;;29.60;31.66;100485.38;5070699;28;1011;-32
2022/07/08 11:29:30;;;;;;;;;;;;;;;30.03;30.66;100482.28;5065033;28;1375;-29
2022/07/08 11:31:58;;;;;;;;;;;;;;;30.06;30.74;100481.84;5063403;28;847;-29
2022/07/08 11:34:26;;;;;;;;;;;;;;;29.86;31.33;100486.47;5067835;28;1898;-27
2022/07/08 11:36:55;;;;;;;;;;;;;;;29.80;31.61;100488.13;5070008;28;1023;-27
2022/07/08 11:39:20;;;;;;;;;;;;;;;29.87;31.17;100480.81;5069595;28;1097;-28
2022/07/08 11:41:45;;;;;;;;;;;;;;;29.70;31.64;100477.69;5058943;28;1204;-27
2022/07/08 11:44:11;;;;;;;;;;;;;;;29.87;31.34;100474.56;5067927;28;969;-28
2022/07/08 11:46:37;;;;;;;;;;;;;;;30.08;31.13;100483.53;5070912;28;1175;-28
2022/07/08 11:49:06;;;;;;;;;;;;;;;29.85;31.67;100480.19;5065429;28;1203;-29
2022/07/08 11:51:31;;;;;;;;;;;;;;;29.67;31.86;100476.25;5067986;28;1012;-29
2022/07/08 11:53:57;;;;;;;;;;;;;;;29.83;31.54;100476.84;5068769;28;1902;-26
2022/07/08 11:56:22;;;;;;;;;;;;;;;29.63;31.42;100471.44;5068360;28;977;-26
2022/07/08 11:58:47;;;;;;;;;;;;;;;29.51;31.65;100465.75;5058915;28;1373;-27
2022/07/08 12:01:13;;;;;;;;;;;;;;;29.48;31.50;100450.72;5056792;28;1543;-28
2022/07/08 12:03:38;;;;;;;;;;;;;;;29.65;31.19;100453.91;5057952;28;1435;-28
2022/07/08 12:06:03;;;;;;;;;;;;;;;29.90;30.85;100455.16;5057649;28;1295;-28
2022/07/08 12:08:30;;;;;;;;;;;;;;;29.80;31.00;100448.28;5058742;28;1440;-28
2022/07/08 12:11:11;;;;;;;;;;;;;;;30.58;31.58;100449.66;5058057;28;981;-28
2022/07/08 12:13:40;;;;;;;;;;;;;;;30.07;30.80;100444.72;5061482;28;1913;-29
2022/07/08 12:16:06;;;;;;;;;;;;;;;30.04;31.32;100450.56;5055686;28;1305;-29
2022/07/08 12:18:31;;;;;;;;;;;;;;;29.97;30.92;100445.16;5046415;28;2410;-27
2022/07/08 12:20:56;;;;;;;;;;;;;;;29.93;31.83;100450.16;5059869;28;1326;-28
2022/07/08 12:23:21;;;;;;;;;;;;;;;30.06;30.82;100441.16;5063074;28;1281;-27
2022/07/08 12:25:47;;;;;;;;;;;;;;;29.57;31.08;100448.66;5063764;28;1296;-29
2022/07/08 12:28:13;;;;;;;;;;;;;;;28.85;30.87;100442.66;5073255;28;1040;-29
2022/07/08 12:30:38;;;;;;;;;;;;;;;28.88;30.74;100441.41;5071649;28;1154;-28
2022/07/08 12:33:04;;;;;;;;;;;;;;;28.70;30.48;100431.13;5057207;28;1074;-28
2022/07/08 12:35:29;;;;;;;;;;;;;;;28.90;30.61;100439.31;5057873;28;1962;-33
2022/07/08 12:38:05;;;;;;;;;;;;;;;29.55;31.16;100434.47;5063830;28;1072;-29
2022/07/08 12:40:39;;;;;;;;;;;;;;;29.91;29.65;100443.28;5055965;28;901;-28
2022/07/08 12:43:05;;;;;;;;;;;;;;;29.63;31.00;100441.63;5061969;28;1112;-29
2022/07/08 12:45:30;;;;;;;;;;;;;;;29.91;30.59;100446.00;5064905;28;1001;-28